Time;durP1;ratioP1;P1;durP2;ratioP2;P2;SDS_P1;SDS_P2;PMS_P1;PMS_P2;Temp;Humidity;BMP_temperature;BMP_pressure;BME280_temperature;BME280_humidity;BME280_pressure;Samples;Min_cycle;Max_cycle;Signal;HPM_P1;HPM_P2
2023/01/30 00:00:28;;;;;;;3.90;3.57;;;15.60;53.40;16.50;101160.00;;;;5028809;28;20546;-48
2023/01/30 00:02:54;;;;;;;4.10;3.70;;;15.60;53.50;16.50;101164.00;;;;5028608;28;20178;-48
2023/01/30 00:05:19;;;;;;;3.93;3.63;;;15.60;53.50;16.50;101150.00;;;;5028917;28;20197;-48
2023/01/30 00:07:48;;;;;;;3.80;3.50;;;15.60;53.40;16.50;101129.00;;;;5028785;28;20174;-49
2023/01/30 00:10:15;;;;;;;3.80;3.50;;;15.60;53.40;16.50;101109.00;;;;5029091;28;20614;-48
2023/01/30 00:12:40;;;;;;;3.83;3.40;;;15.60;53.30;16.50;101108.00;;;;5030195;28;20317;-49
2023/01/30 00:15:07;;;;;;;4.20;3.80;;;15.60;53.40;16.50;101107.00;;;;5029121;28;20314;-49
2023/01/30 00:17:32;;;;;;;3.90;3.60;;;15.50;53.30;16.40;101105.00;;;;5029151;28;20191;-49
2023/01/30 00:19:58;;;;;;;4.27;3.70;;;15.50;53.40;16.40;101118.00;;;;5028519;28;20595;-48
2023/01/30 00:22:24;;;;;;;3.80;3.50;;;15.50;53.40;16.40;101142.00;;;;5028700;28;20218;-49
2023/01/30 00:24:49;;;;;;;3.90;3.60;;;15.50;53.30;16.40;101140.00;;;;5028521;28;20240;-48
2023/01/30 00:27:15;;;;;;;3.90;3.60;;;15.40;53.30;16.40;101116.00;;;;5028750;28;20174;-48
2023/01/30 00:29:41;;;;;;;3.70;3.40;;;15.50;53.40;16.40;101126.00;;;;5028714;28;20190;-48
2023/01/30 00:32:07;;;;;;;3.77;3.47;;;15.40;53.30;16.40;101108.00;;;;5028575;28;20179;-48
2023/01/30 00:34:34;;;;;;;3.60;3.30;;;15.40;53.30;16.30;101104.00;;;;5028940;28;20214;-48
2023/01/30 00:36:59;;;;;;;3.80;3.50;;;15.40;53.40;16.30;101099.00;;;;5028635;28;20789;-48
2023/01/30 00:39:25;;;;;;;3.80;3.50;;;15.40;53.30;16.30;101091.00;;;;5028817;28;20198;-48
2023/01/30 00:47:20;;;;;;;3.60;3.30;;;15.30;53.40;16.20;101083.00;;;;5030514;28;20539;-49
2023/01/30 00:49:45;;;;;;;3.43;3.20;;;15.30;53.30;16.20;101081.00;;;;5030948;28;20198;-48
2023/01/30 00:52:11;;;;;;;3.70;3.40;;;15.30;53.40;16.20;101084.00;;;;5031707;28;20186;-49
2023/01/30 00:54:37;;;;;;;3.20;3.00;;;15.30;53.70;16.20;101070.00;;;;5032226;28;20240;-49
2023/01/30 00:57:03;;;;;;;3.47;3.17;;;15.30;53.40;16.20;101070.00;;;;5032084;28;20549;-49
2023/01/30 00:59:28;;;;;;;3.60;3.30;;;15.20;53.30;16.20;101065.00;;;;5031732;28;20259;-48
2023/01/30 01:01:54;;;;;;;3.60;3.30;;;15.30;53.50;16.10;101042.00;;;;5032255;28;20171;-48
2023/01/30 01:04:20;;;;;;;3.57;3.27;;;15.20;53.40;16.10;101038.00;;;;5031964;28;20252;-49
2023/01/30 01:06:45;;;;;;;3.50;3.20;;;15.30;53.50;16.10;101035.00;;;;5032051;28;20302;-48
2023/01/30 01:09:11;;;;;;;3.50;3.20;;;15.20;53.30;16.10;101037.00;;;;5031701;28;20182;-50
2023/01/30 01:11:37;;;;;;;3.40;3.10;;;15.20;53.40;16.10;101035.00;;;;5030119;28;20794;-48
2023/01/30 01:14:04;;;;;;;3.60;3.30;;;15.20;53.40;16.10;101052.00;;;;5031725;28;20213;-48
2023/01/30 01:16:30;;;;;;;3.60;3.30;;;15.20;53.40;16.10;101058.00;;;;5031983;28;20237;-49
2023/01/30 01:18:55;;;;;;;3.10;2.90;;;15.20;53.40;16.10;101047.00;;;;5031923;28;20651;-48
2023/01/30 01:21:21;;;;;;;3.50;3.20;;;15.10;53.40;16.00;101050.00;;;;5031714;28;20211;-48
2023/01/30 01:23:56;;;;;;;3.53;3.23;;;15.20;53.40;16.00;101052.00;;;;5031783;28;20186;-48
2023/01/30 01:26:22;;;;;;;3.30;3.10;;;15.10;53.40;16.00;101047.00;;;;5031827;28;20175;-48
2023/01/30 01:28:48;;;;;;;3.17;2.97;;;15.10;53.40;16.00;101040.00;;;;5031516;28;20193;-48
2023/01/30 01:31:15;;;;;;;3.30;3.10;;;15.10;53.50;16.00;101031.00;;;;5031569;28;20694;-48
2023/01/30 01:33:40;;;;;;;3.53;3.23;;;15.10;53.50;16.00;101027.00;;;;5030266;28;20250;-50
2023/01/30 01:36:07;;;;;;;3.20;3.00;;;15.10;53.50;16.00;101019.00;;;;5032091;28;20648;-48
2023/01/30 01:38:33;;;;;;;3.37;3.07;;;15.00;53.50;16.00;101017.00;;;;5039049;28;20183;-48
2023/01/30 01:41:02;;;;;;;3.23;3.00;;;15.00;53.40;15.90;101020.00;;;;5044958;28;20211;-48
2023/01/30 01:43:34;;;;;;;3.03;2.83;;;15.00;53.50;15.90;101021.00;;;;5037320;28;20256;-48
2023/01/30 01:46:09;;;;;;;3.40;3.10;;;15.00;53.50;15.90;101025.00;;;;5031782;28;20534;-48
2023/01/30 01:48:47;;;;;;;3.50;3.20;;;15.00;53.50;15.90;101016.00;;;;5014616;28;20159;-47
2023/01/30 01:51:22;;;;;;;3.47;3.17;;;15.00;53.50;15.90;101007.00;;;;5030319;28;20205;-48
2023/01/30 01:53:54;;;;;;;3.40;3.10;;;15.00;53.50;15.90;101020.00;;;;5029923;28;20163;-48
2023/01/30 01:56:19;;;;;;;3.53;3.13;;;14.90;53.50;15.90;101022.00;;;;5031145;28;20175;-48
2023/01/30 01:58:54;;;;;;;3.50;3.20;;;14.90;53.50;15.80;101023.00;;;;5029135;28;20179;-48
2023/01/30 02:01:20;;;;;;;3.30;3.10;;;14.90;53.50;15.80;101027.00;;;;5030125;28;20210;-48
2023/01/30 02:03:49;;;;;;;3.50;3.20;;;14.90;53.50;15.80;100991.00;;;;5029963;28;20229;-48
2023/01/30 02:06:15;;;;;;;3.40;3.17;;;14.90;53.50;15.80;101018.00;;;;5013994;28;20261;-49
2023/01/30 02:08:50;;;;;;;3.20;3.00;;;14.90;53.50;15.80;101002.00;;;;5034192;28;20217;-47
2023/01/30 02:11:41;;;;;;;3.23;3.03;;;14.90;53.60;15.80;100983.00;;;;5024852;28;20198;-48
2023/01/30 02:14:07;;;;;;;3.40;3.10;;;14.90;53.60;15.80;100985.00;;;;5016927;28;20603;-48
2023/01/30 02:16:34;;;;;;;3.43;3.20;;;14.80;54.10;15.70;100977.00;;;;5029842;28;20186;-47
2023/01/30 02:19:00;;;;;;;3.30;3.00;;;14.80;53.50;15.70;100975.00;;;;5030785;28;20187;-47
2023/01/30 02:21:50;;;;;;;3.00;2.80;;;14.80;53.50;15.70;100974.00;;;;5030629;28;20222;-49
2023/01/30 02:24:31;;;;;;;3.53;3.23;;;14.80;53.50;15.70;100963.00;;;;5030642;28;20226;-49
2023/01/30 02:27:16;;;;;;;3.20;3.00;;;14.80;53.50;15.70;100958.00;;;;5029634;28;20217;-48
2023/01/30 02:30:09;;;;;;;3.30;3.00;;;14.80;53.60;15.70;100959.00;;;;5029227;28;20191;-48
2023/01/30 02:32:57;;;;;;;3.70;3.40;;;14.80;53.50;15.70;100966.00;;;;5016069;28;20692;-48
2023/01/30 02:35:41;;;;;;;3.50;3.20;;;14.80;53.60;15.70;100940.00;;;;5030495;28;20186;-48
2023/01/30 02:38:40;;;;;;;3.00;2.80;;;14.70;53.80;15.60;100957.00;;;;5014316;28;20587;-48
2023/01/30 02:41:38;;;;;;;3.37;3.07;;;14.70;53.90;15.60;100947.00;;;;5029654;28;20688;-49
2023/01/30 02:44:09;;;;;;;3.40;3.10;;;14.70;54.00;15.60;100947.00;;;;5030742;28;20226;-48
2023/01/30 02:46:55;;;;;;;3.23;3.00;;;14.60;53.90;15.60;100932.00;;;;5030345;28;20307;-48
2023/01/30 02:49:35;;;;;;;3.30;3.00;;;14.60;53.90;15.50;100921.00;;;;5029271;28;20177;-49
2023/01/30 02:52:01;;;;;;;3.10;2.90;;;14.60;54.10;15.50;100922.00;;;;5028399;28;20163;-48
2023/01/30 02:54:26;;;;;;;3.00;2.80;;;14.60;54.10;15.50;100927.00;;;;5028996;28;20178;-48
2023/01/30 02:56:56;;;;;;;3.23;3.03;;;14.50;54.10;15.50;100918.00;;;;5030021;28;20193;-48
2023/01/30 02:59:32;;;;;;;3.60;3.30;;;14.50;54.10;15.50;100888.00;;;;5028649;28;20363;-48
2023/01/30 03:02:41;;;;;;;3.27;2.97;;;14.50;54.10;15.50;100908.00;;;;5028392;28;20167;-48
2023/01/30 03:05:54;;;;;;;3.17;2.90;;;14.50;54.10;15.50;100904.00;;;;5029775;28;20787;-48
2023/01/30 03:08:41;;;;;;;3.10;2.90;;;14.50;54.10;15.50;100906.00;;;;5028868;28;20201;-48
2023/01/30 03:11:08;;;;;;;2.90;2.70;;;14.50;54.10;15.40;100903.00;;;;5028397;28;20187;-49
2023/01/30 03:13:54;;;;;;;3.47;3.17;;;14.50;54.10;15.40;100906.00;;;;5029502;28;20175;-48
2023/01/30 03:16:30;;;;;;;3.00;2.80;;;14.50;54.20;15.40;100890.00;;;;5029579;28;20640;-48
2023/01/30 03:18:58;;;;;;;3.07;2.80;;;14.40;54.20;15.40;100895.00;;;;5028255;28;20182;-49
2023/01/30 03:21:23;;;;;;;3.00;2.80;;;14.40;54.20;15.40;100886.00;;;;5011702;28;20344;-49
2023/01/30 03:23:49;;;;;;;3.23;2.97;;;14.40;54.30;15.40;100889.00;;;;5029838;28;20175;-49
2023/01/30 03:26:19;;;;;;;3.10;2.90;;;14.40;54.20;15.40;100889.00;;;;5030135;28;20538;-48
2023/01/30 03:28:46;;;;;;;3.40;3.10;;;14.40;54.20;15.40;100893.00;;;;5039186;28;20178;-47
2023/01/30 03:31:11;;;;;;;3.13;2.90;;;14.40;54.20;15.40;100892.00;;;;5038575;28;20195;-47
2023/01/30 03:33:37;;;;;;;3.20;2.90;;;14.40;54.20;15.40;100878.00;;;;5037871;28;20171;-48
2023/01/30 03:36:03;;;;;;;2.90;2.70;;;14.40;54.20;15.30;100877.00;;;;5029658;28;20171;-48
2023/01/30 03:38:29;;;;;;;3.20;3.00;;;14.40;54.20;15.30;100865.00;;;;5028651;28;20189;-48
2023/01/30 03:40:55;;;;;;;3.47;3.20;;;14.40;54.20;15.30;100875.00;;;;5028661;28;20229;-48
2023/01/30 03:43:20;;;;;;;3.00;2.80;;;14.40;54.20;15.30;100855.00;;;;5029222;28;20179;-48
2023/01/30 03:45:46;;;;;;;3.73;3.27;;;14.40;54.20;15.30;100865.00;;;;5033895;28;20171;-48
2023/01/30 03:48:12;;;;;;;2.77;2.57;;;14.40;54.20;15.30;100865.00;;;;5028998;28;20175;-48
2023/01/30 03:50:37;;;;;;;2.90;2.70;;;14.40;54.20;15.30;100851.00;;;;5029487;28;20195;-48
2023/01/30 03:53:03;;;;;;;3.20;2.90;;;14.40;54.20;15.30;100854.00;;;;5029064;28;20175;-49
2023/01/30 03:55:29;;;;;;;3.13;2.90;;;14.30;54.20;15.30;100849.00;;;;5029237;28;20245;-49
2023/01/30 03:57:57;;;;;;;3.00;2.80;;;14.30;54.20;15.30;100845.00;;;;5029224;28;20177;-48
2023/01/30 04:00:23;;;;;;;2.93;2.73;;;14.40;54.20;15.30;100846.00;;;;5029356;28;20595;-48
2023/01/30 04:02:49;;;;;;;2.93;2.73;;;14.30;54.80;15.30;100846.00;;;;5028533;28;20173;-48
2023/01/30 04:05:15;;;;;;;3.00;2.80;;;14.40;54.20;15.30;100829.00;;;;5029960;28;20167;-48
2023/01/30 04:07:40;;;;;;;2.93;2.73;;;14.40;54.20;15.30;100843.00;;;;5041397;28;20196;-48
2023/01/30 04:10:07;;;;;;;2.80;2.60;;;14.30;54.20;15.30;100806.00;;;;5039803;28;20187;-49
2023/01/30 04:12:32;;;;;;;2.90;2.70;;;14.30;54.50;15.30;100802.00;;;;5039691;28;20193;-48
2023/01/30 04:14:58;;;;;;;3.90;2.70;;;14.30;54.70;15.30;100809.00;;;;5032209;28;20171;-47
2023/01/30 04:17:24;;;;;;;5.77;2.70;;;14.20;54.90;15.20;100809.00;;;;5029127;28;20649;-48
2023/01/30 04:19:50;;;;;;;3.80;2.90;;;14.20;55.30;15.20;100804.00;;;;5028871;28;20206;-48
2023/01/30 04:22:15;;;;;;;2.87;2.57;;;14.20;55.00;15.20;100804.00;;;;5030669;28;20155;-51
2023/01/30 04:24:41;;;;;;;4.90;2.80;;;14.30;54.80;15.20;100806.00;;;;5032832;28;20171;-49
2023/01/30 04:27:08;;;;;;;5.30;2.90;;;14.30;54.70;15.20;100795.00;;;;5034845;28;20167;-49
2023/01/30 04:29:34;;;;;;;5.13;2.87;;;14.20;54.80;15.20;100809.00;;;;5034149;28;20250;-48
2023/01/30 04:31:59;;;;;;;4.30;2.80;;;14.20;55.00;15.20;100823.00;;;;5032799;28;20297;-48
2023/01/30 04:34:25;;;;;;;4.83;2.90;;;14.20;54.90;15.20;100806.00;;;;5032967;28;20174;-48
2023/01/30 04:36:51;;;;;;;4.90;2.73;;;14.20;54.90;15.20;100799.00;;;;5032907;28;20179;-49
2023/01/30 04:39:16;;;;;;;4.13;2.80;;;14.20;54.80;15.20;100797.00;;;;5031116;28;20232;-48
2023/01/30 04:41:42;;;;;;;3.37;3.07;;;14.20;54.80;15.20;100789.00;;;;5032289;28;20207;-48
2023/01/30 04:44:08;;;;;;;3.63;2.70;;;14.20;54.70;15.20;100786.00;;;;5032788;28;20601;-48
2023/01/30 04:46:34;;;;;;;3.00;2.80;;;14.20;54.70;15.20;100791.00;;;;5032835;28;20171;-49
2023/01/30 04:48:59;;;;;;;3.83;2.80;;;14.20;54.70;15.10;100792.00;;;;5032846;28;20228;-48
2023/01/30 04:51:25;;;;;;;4.13;3.10;;;14.20;54.80;15.10;100804.00;;;;5039468;28;20206;-48
2023/01/30 04:53:51;;;;;;;3.20;2.90;;;14.10;55.00;15.10;100797.00;;;;5044595;28;20171;-48
2023/01/30 04:56:16;;;;;;;3.47;3.03;;;14.10;54.90;15.10;100789.00;;;;5034234;28;20554;-48
2023/01/30 04:58:42;;;;;;;3.83;3.43;;;14.10;55.00;15.10;100788.00;;;;5033487;28;20647;-48
2023/01/30 05:01:12;;;;;;;4.43;3.50;;;14.10;54.90;15.10;100797.00;;;;5032893;28;20209;-49
2023/01/30 05:03:38;;;;;;;3.77;3.40;;;14.10;55.00;15.10;100790.00;;;;5032534;28;20182;-48
2023/01/30 05:06:04;;;;;;;4.47;3.37;;;14.10;54.90;15.10;100794.00;;;;5032982;28;20167;-48
2023/01/30 05:08:30;;;;;;;3.60;3.30;;;14.10;55.00;15.10;100783.00;;;;5033277;28;20793;-48
2023/01/30 05:10:57;;;;;;;3.70;3.40;;;14.00;55.00;15.10;100782.00;;;;5032735;28;20194;-49
2023/01/30 05:13:22;;;;;;;3.93;3.57;;;14.10;55.00;15.00;100776.00;;;;5032254;28;20520;-49
2023/01/30 05:15:48;;;;;;;3.70;3.30;;;14.10;54.90;15.00;100785.00;;;;5032698;28;20175;-48
2023/01/30 05:18:14;;;;;;;3.30;3.00;;;14.00;54.80;15.00;100787.00;;;;5032371;28;20167;-48
2023/01/30 05:20:39;;;;;;;4.87;3.90;;;14.10;55.00;15.00;100783.00;;;;5039365;28;20211;-48
2023/01/30 05:23:05;;;;;;;3.90;3.40;;;14.00;55.00;15.00;100774.00;;;;5038098;28;20171;-48
2023/01/30 05:25:31;;;;;;;6.33;3.80;;;14.00;55.00;15.00;100772.00;;;;5032453;28;20656;-48
2023/01/30 05:27:56;;;;;;;9.00;4.43;;;14.00;55.10;15.00;100772.00;;;;5032482;28;20186;-48
2023/01/30 05:30:22;;;;;;;10.17;4.67;;;14.00;55.20;15.00;100763.00;;;;5032341;28;20202;-49
2023/01/30 05:32:48;;;;;;;6.33;4.20;;;14.00;55.40;15.00;100755.00;;;;5031462;28;20175;-48
2023/01/30 05:35:14;;;;;;;10.20;4.30;;;14.00;55.40;15.00;100755.00;;;;5031983;28;20167;-48
2023/01/30 05:37:39;;;;;;;10.47;4.63;;;13.90;55.40;14.90;100741.00;;;;5032183;28;20261;-47
2023/01/30 05:40:06;;;;;;;7.20;4.40;;;13.90;55.50;14.90;100748.00;;;;5032165;28;20216;-48
2023/01/30 05:42:32;;;;;;;11.40;4.20;;;13.90;55.50;14.90;100754.00;;;;5020842;28;20186;-48
2023/01/30 05:44:57;;;;;;;9.53;4.40;;;13.90;55.50;14.90;100771.00;;;;5014515;28;20223;-48
2023/01/30 05:47:23;;;;;;;9.07;4.50;;;13.90;55.70;14.90;100754.00;;;;5011903;28;20180;-48
2023/01/30 05:49:49;;;;;;;10.70;4.50;;;13.90;55.60;14.90;100748.00;;;;5011730;28;20591;-48
2023/01/30 05:52:14;;;;;;;11.23;4.40;;;13.90;55.60;14.90;100761.00;;;;5011136;28;20207;-49
2023/01/30 05:54:40;;;;;;;6.33;4.00;;;13.90;55.80;14.90;100750.00;;;;5009993;28;20267;-48
2023/01/30 05:57:06;;;;;;;7.33;4.10;;;13.90;55.80;14.90;100743.00;;;;5011851;28;20172;-48
2023/01/30 05:59:31;;;;;;;7.17;3.80;;;13.90;55.80;14.90;100751.00;;;;5011659;28;20550;-49
2023/01/30 06:01:57;;;;;;;7.00;3.63;;;14.00;56.00;15.00;100733.00;;;;5010308;28;20176;-48
2023/01/30 06:04:23;;;;;;;4.37;3.43;;;14.00;56.00;15.00;100738.00;;;;5010095;28;20171;-48
2023/01/30 06:06:49;;;;;;;4.97;3.33;;;14.10;55.90;15.00;100750.00;;;;5011039;28;20226;-48
2023/01/30 06:09:15;;;;;;;6.07;3.20;;;14.20;55.90;15.10;100757.00;;;;5011658;28;20784;-48
2023/01/30 06:11:41;;;;;;;9.37;3.70;;;14.30;55.90;15.20;100750.00;;;;5010704;28;20195;-47
2023/01/30 06:14:06;;;;;;;6.70;3.13;;;14.40;55.90;15.20;100680.00;;;;5027461;28;20210;-49
2023/01/30 06:16:32;;;;;;;6.60;3.33;;;14.50;55.80;15.30;100760.00;;;;5037151;28;20182;-49
2023/01/30 06:18:58;;;;;;;6.40;2.97;;;14.50;55.70;15.40;100769.00;;;;5032226;28;20191;-48
2023/01/30 06:21:24;;;;;;;6.03;3.00;;;14.60;55.70;15.50;100755.00;;;;5031773;28;20219;-48
2023/01/30 06:23:49;;;;;;;5.57;3.03;;;14.80;55.80;15.60;100765.00;;;;5031803;28;20175;-48
2023/01/30 06:26:15;;;;;;;4.77;3.17;;;14.80;55.60;15.70;100769.00;;;;5030622;28;20167;-49
2023/01/30 06:28:41;;;;;;;3.03;2.70;;;14.90;55.70;15.70;100780.00;;;;5031290;28;20217;-47
2023/01/30 06:31:07;;;;;;;4.47;2.60;;;15.00;55.60;15.80;100780.00;;;;5030061;28;20338;-47
2023/01/30 06:33:33;;;;;;;5.57;2.90;;;15.10;55.60;15.90;100779.00;;;;5032118;28;20183;-47
2023/01/30 06:35:59;;;;;;;2.87;2.40;;;15.10;55.50;15.90;100770.00;;;;5033163;28;20617;-48
2023/01/30 06:38:25;;;;;;;3.17;2.50;;;15.20;55.50;16.00;100764.00;;;;5030888;28;20213;-47
2023/01/30 06:40:50;;;;;;;3.73;2.40;;;15.20;55.50;16.10;100769.00;;;;5030213;28;20695;-47
2023/01/30 06:43:16;;;;;;;3.07;2.60;;;15.30;55.50;16.10;100773.00;;;;5029012;28;20196;-50
2023/01/30 06:45:42;;;;;;;3.20;2.50;;;15.30;55.50;16.20;100780.00;;;;5029330;28;20186;-48
2023/01/30 06:48:08;;;;;;;4.50;2.50;;;15.30;55.40;16.20;100762.00;;;;5030625;28;20178;-47
2023/01/30 06:50:33;;;;;;;2.63;2.43;;;15.40;55.50;16.20;100770.00;;;;5030791;28;20198;-48
2023/01/30 06:53:04;;;;;;;2.50;2.30;;;15.40;55.40;16.30;100779.00;;;;5030148;28;20186;-48
2023/01/30 06:55:33;;;;;;;3.83;2.50;;;15.50;55.50;16.30;100787.00;;;;5030173;28;20764;-49
2023/01/30 06:58:12;;;;;;;3.27;2.40;;;15.50;55.40;16.40;100805.00;;;;5030523;28;20202;-46
2023/01/30 07:00:39;;;;;;;3.30;2.37;;;15.60;55.90;16.40;100805.00;;;;5029032;28;20759;-48
2023/01/30 07:03:15;;;;;;;3.43;2.40;;;15.60;55.30;16.40;100815.00;;;;5011735;28;20229;-49
2023/01/30 07:05:42;;;;;;;3.00;2.33;;;15.60;55.30;16.50;100825.00;;;;5030173;28;20162;-47
2023/01/30 07:08:07;;;;;;;3.17;2.33;;;15.60;55.20;16.50;100814.00;;;;5030016;28;20175;-47
2023/01/30 07:10:34;;;;;;;2.70;2.30;;;15.60;55.30;16.50;100807.00;;;;5029690;28;20234;-47
2023/01/30 07:13:00;;;;;;;2.73;2.43;;;15.70;55.30;16.50;100791.00;;;;5029459;28;20174;-48
2023/01/30 07:15:26;;;;;;;3.20;2.40;;;15.70;55.30;16.60;100807.00;;;;5030397;28;20171;-48
2023/01/30 07:17:52;;;;;;;2.73;2.37;;;15.70;55.40;16.60;100799.00;;;;5036181;28;20230;-47
2023/01/30 07:20:18;;;;;;;3.77;2.40;;;15.70;55.30;16.60;100797.00;;;;5029617;28;20242;-48
2023/01/30 07:22:51;;;;;;;2.50;2.30;;;15.70;55.30;16.60;100798.00;;;;5029180;28;20170;-47
2023/01/30 07:25:17;;;;;;;2.40;2.20;;;15.80;55.40;16.70;100795.00;;;;5028479;28;20201;-48
2023/01/30 07:27:49;;;;;;;3.60;2.27;;;15.80;55.40;16.70;100776.00;;;;5029786;28;20181;-48
2023/01/30 07:30:15;;;;;;;7.20;2.60;;;15.80;55.70;16.70;100792.00;;;;5030195;28;20858;-48
2023/01/30 07:32:40;;;;;;;7.40;2.20;;;15.80;56.20;16.70;100790.00;;;;5028384;28;20186;-48
2023/01/30 07:35:07;;;;;;;9.03;2.30;;;15.80;56.20;16.70;100793.00;;;;5036873;28;20205;-48
2023/01/30 07:37:32;;;;;;;4.00;2.30;;;15.90;56.20;16.70;100797.00;;;;5045292;28;20186;-48
2023/01/30 07:39:58;;;;;;;4.43;2.30;;;15.90;56.00;16.80;100794.00;;;;5032998;28;20718;-49
2023/01/30 07:42:24;;;;;;;4.50;2.27;;;15.90;55.90;16.80;100788.00;;;;5035837;28;20525;-48
2023/01/30 07:44:49;;;;;;;2.93;2.10;;;15.90;55.80;16.80;100799.00;;;;5039821;28;20170;-48
2023/01/30 07:47:15;;;;;;;3.03;2.20;;;15.90;55.90;16.80;100795.00;;;;5039430;28;20205;-48
2023/01/30 07:49:41;;;;;;;3.73;2.10;;;15.90;55.90;16.80;100802.00;;;;5035150;28;20233;-47
2023/01/30 07:52:07;;;;;;;3.13;2.10;;;15.90;55.80;16.80;100806.00;;;;5029530;28;20170;-47
2023/01/30 07:54:32;;;;;;;3.83;2.03;;;15.90;55.80;16.80;100806.00;;;;5029383;28;20179;-47
2023/01/30 07:56:58;;;;;;;3.23;2.00;;;15.90;55.80;16.80;100802.00;;;;5029614;28;20171;-48
2023/01/30 07:59:24;;;;;;;2.50;2.10;;;15.90;55.70;16.80;100811.00;;;;5030123;28;20202;-47
2023/01/30 08:01:49;;;;;;;3.07;2.07;;;16.00;55.70;16.80;100810.00;;;;5029731;28;20678;-48
2023/01/30 08:04:15;;;;;;;3.50;2.10;;;16.00;55.70;16.80;100801.00;;;;5030505;28;20171;-47
2023/01/30 08:06:41;;;;;;;3.00;1.93;;;16.00;55.60;16.90;100813.00;;;;5030225;28;20762;-48
2023/01/30 08:09:07;;;;;;;2.93;2.00;;;16.00;55.50;16.90;100796.00;;;;5030143;28;20178;-46
2023/01/30 08:11:33;;;;;;;2.37;2.07;;;16.00;55.50;16.90;100808.00;;;;5029820;28;20805;-48
2023/01/30 08:13:59;;;;;;;2.30;2.10;;;16.00;55.60;16.90;100817.00;;;;5029165;28;20183;-47
2023/01/30 08:16:24;;;;;;;3.13;2.20;;;16.00;55.50;16.90;100821.00;;;;5035964;28;20190;-48
2023/01/30 08:18:50;;;;;;;3.90;2.00;;;16.00;55.60;16.90;100824.00;;;;5034839;28;20205;-48
2023/01/30 08:21:16;;;;;;;3.37;2.00;;;16.00;56.20;16.90;100830.00;;;;5034896;28;20252;-48
2023/01/30 08:23:42;;;;;;;3.37;2.03;;;16.00;55.60;16.90;100830.00;;;;5028801;28;20576;-48
2023/01/30 08:26:07;;;;;;;5.03;2.23;;;16.00;55.60;16.90;100838.00;;;;5028457;28;20175;-47
2023/01/30 08:28:33;;;;;;;4.53;2.40;;;16.10;55.70;17.00;100826.00;;;;5027292;28;20294;-47
2023/01/30 08:30:59;;;;;;;5.30;2.10;;;16.10;55.70;17.00;100838.00;;;;5029119;28;20191;-48
2023/01/30 08:33:24;;;;;;;3.37;2.00;;;16.10;55.70;17.00;100829.00;;;;5027978;28;20186;-48
2023/01/30 08:35:50;;;;;;;2.40;2.17;;;16.10;55.70;17.00;100834.00;;;;5028499;28;20210;-49
2023/01/30 08:38:16;;;;;;;4.90;2.20;;;16.10;55.70;17.00;100844.00;;;;5028234;28;20225;-48
2023/01/30 08:40:42;;;;;;;5.00;2.37;;;16.10;55.70;17.00;100835.00;;;;5028957;28;20202;-48
2023/01/30 08:43:08;;;;;;;3.50;2.00;;;16.10;55.70;17.00;100839.00;;;;5032318;28;20182;-48
2023/01/30 08:45:33;;;;;;;2.63;2.10;;;16.10;55.60;17.00;100835.00;;;;5030664;28;20202;-48
2023/01/30 08:48:00;;;;;;;3.23;1.90;;;16.10;55.60;17.00;100832.00;;;;5028951;28;20171;-48
2023/01/30 08:50:26;;;;;;;4.10;2.00;;;16.20;55.60;17.00;100845.00;;;;5028729;28;20226;-51
2023/01/30 08:52:51;;;;;;;2.53;2.13;;;16.20;55.60;17.00;100851.00;;;;5032008;28;20585;-48
2023/01/30 08:55:17;;;;;;;2.63;2.17;;;16.20;55.50;17.00;100851.00;;;;5035020;28;20171;-49
2023/01/30 08:57:43;;;;;;;3.17;1.90;;;16.10;55.50;17.00;100853.00;;;;5028248;28;20211;-47
2023/01/30 09:00:10;;;;;;;3.33;2.00;;;16.10;55.40;17.00;100854.00;;;;5028310;28;20195;-48
2023/01/30 09:02:36;;;;;;;2.20;2.00;;;16.10;55.50;17.00;100858.00;;;;5028112;28;20174;-48
2023/01/30 09:05:02;;;;;;;3.70;2.07;;;16.20;55.50;17.00;100866.00;;;;5028070;28;20635;-48
2023/01/30 09:07:28;;;;;;;2.10;1.90;;;16.10;55.40;17.00;100864.00;;;;5029084;28;20179;-48
2023/01/30 09:09:54;;;;;;;3.00;2.00;;;16.10;55.40;17.00;100876.00;;;;5032268;28;20202;-48
2023/01/30 09:12:20;;;;;;;3.00;2.03;;;16.10;55.30;17.00;100875.00;;;;5032085;28;20670;-48
2023/01/30 09:14:45;;;;;;;2.63;2.00;;;16.10;55.40;17.00;100888.00;;;;5035739;28;20179;-47
2023/01/30 09:17:11;;;;;;;2.57;1.90;;;16.10;55.50;17.00;100874.00;;;;5037720;28;20167;-48
2023/01/30 09:19:37;;;;;;;2.43;2.00;;;16.20;55.60;17.00;100854.00;;;;5039004;28;20178;-48
2023/01/30 09:22:03;;;;;;;2.80;1.80;;;16.20;55.60;17.00;100843.00;;;;5033195;28;20202;-48
2023/01/30 09:24:29;;;;;;;4.60;1.97;;;16.10;55.60;17.10;100830.00;;;;5031367;28;20265;-47
2023/01/30 09:26:56;;;;;;;5.07;2.00;;;16.20;55.70;17.00;100817.00;;;;5031998;28;20171;-47
2023/01/30 09:29:22;;;;;;;3.50;2.07;;;16.20;55.70;17.00;100820.00;;;;5031661;28;20243;-48
2023/01/30 09:31:48;;;;;;;5.47;2.20;;;16.10;55.70;17.00;100844.00;;;;5031296;28;20822;-47
2023/01/30 09:34:14;;;;;;;9.87;2.10;;;16.10;55.90;17.00;100832.00;;;;5031593;28;20644;-48
2023/01/30 09:36:39;;;;;;;7.13;2.50;;;16.10;56.20;17.00;100843.00;;;;5029485;28;20191;-48
2023/01/30 09:39:05;;;;;;;5.97;2.17;;;16.10;56.10;17.00;100854.00;;;;5030526;28;20182;-48
2023/01/30 09:42:01;;;;;;;6.33;2.20;;;16.10;56.70;17.10;100856.00;;;;5030420;28;20305;-47
2023/01/30 09:44:45;;;;;;;8.27;2.10;;;16.10;56.70;17.10;100876.00;;;;5031100;28;20170;-48
2023/01/30 09:47:43;;;;;;;6.77;2.10;;;16.20;56.10;17.00;100861.00;;;;5031043;28;20521;-47
2023/01/30 09:50:40;;;;;;;6.70;2.03;;;16.20;56.00;17.00;100870.00;;;;5030602;28;20207;-47
2023/01/30 09:53:30;;;;;;;4.17;2.30;;;16.20;56.00;17.00;100881.00;;;;5030027;28;20183;-48
2023/01/30 09:56:00;;;;;;;5.10;2.10;;;16.20;55.90;16.80;100875.00;;;;5030075;28;20171;-48
2023/01/30 09:58:40;;;;;;;10.93;2.30;;;16.20;55.90;17.10;100875.00;;;;5030201;28;20674;-47
2023/01/30 10:01:09;;;;;;;5.73;2.30;;;16.10;55.80;17.00;100877.00;;;;5030197;28;20195;-47
2023/01/30 10:03:40;;;;;;;7.77;2.30;;;16.10;55.70;17.00;100875.00;;;;5029526;28;20171;-47
2023/01/30 10:06:10;;;;;;;4.03;2.17;;;16.10;55.70;17.00;100881.00;;;;5030702;28;20155;-47
2023/01/30 10:08:41;;;;;;;6.27;2.10;;;16.10;55.70;17.00;100894.00;;;;5029657;28;20159;-46
2023/01/30 10:12:13;;;;;;;8.03;2.10;;;16.20;55.80;17.10;100874.00;;;;5031375;28;20538;-47
2023/01/30 10:15:18;;;;;;;4.43;2.20;;;16.20;55.80;17.00;100854.00;;;;5029329;28;20642;-47
2023/01/30 10:18:09;;;;;;;5.37;2.00;;;16.20;55.80;17.00;100897.00;;;;5032005;28;20258;-47
2023/01/30 10:21:13;;;;;;;2.47;1.80;;;16.20;55.70;17.00;100885.00;;;;5039778;28;20229;-47
2023/01/30 10:24:09;;;;;;;4.30;2.17;;;16.10;55.70;17.00;100896.00;;;;5032655;28;20187;-48
2023/01/30 10:26:35;;;;;;;4.23;2.00;;;16.10;55.70;17.00;100899.00;;;;5031087;28;20159;-47
2023/01/30 10:29:23;;;;;;;3.37;2.00;;;16.10;55.70;17.00;100896.00;;;;5029338;28;20171;-49
2023/01/30 10:32:02;;;;;;;4.17;1.97;;;16.10;55.70;17.00;100897.00;;;;5040302;28;20231;-46
2023/01/30 10:34:33;;;;;;;2.23;1.93;;;16.10;55.80;17.00;100894.00;;;;5029568;28;20224;-46
2023/01/30 10:37:04;;;;;;;5.00;2.10;;;16.10;56.00;17.00;100894.00;;;;5029750;28;20701;-47
2023/01/30 10:39:49;;;;;;;2.30;1.90;;;16.10;56.10;17.00;100901.00;;;;5031692;28;20171;-48
2023/01/30 10:42:25;;;;;;;4.97;2.00;;;16.10;56.20;17.00;100902.00;;;;5028268;28;20163;-47
2023/01/30 10:44:52;;;;;;;2.30;1.80;;;16.10;56.20;17.00;100904.00;;;;5029057;28;20644;-47
2023/01/30 10:47:40;;;;;;;2.93;2.00;;;16.10;56.30;17.00;100907.00;;;;5029324;28;20260;-47
2023/01/30 10:50:15;;;;;;;3.40;1.83;;;16.10;56.30;17.00;100894.00;;;;5029232;28;20191;-46
2023/01/30 10:52:57;;;;;;;4.20;2.10;;;16.10;56.30;17.00;100889.00;;;;5031226;28;20170;-48
2023/01/30 10:56:07;;;;;;;3.20;1.90;;;16.10;56.30;17.00;100900.00;;;;5028820;28;20194;-48
2023/01/30 10:59:21;;;;;;;4.20;2.00;;;16.10;56.40;17.00;100918.00;;;;4995996;28;20196;-47
2023/01/30 11:02:22;;;;;;;4.23;2.17;;;16.20;56.50;17.00;100906.00;;;;5014840;28;20218;-47
2023/01/30 11:04:58;;;;;;;3.47;1.97;;;16.20;56.60;17.00;100907.00;;;;5029031;28;20189;-48